createdAt,value
2023-01-26T00:04:16.139Z,101937.44
2023-01-26T00:09:18.177Z,101941.00
2023-01-26T00:14:20.314Z,101919.09
2023-01-26T00:19:22.390Z,101906.22
2023-01-26T00:24:24.677Z,101912.09
2023-01-26T00:29:26.851Z,101902.47
2023-01-26T00:34:28.929Z,101893.66
2023-01-26T00:39:30.990Z,101898.94
2023-01-26T00:44:33.403Z,101893.66
2023-01-26T00:49:35.675Z,101894.53
2023-01-26T00:54:37.812Z,101873.50
2023-01-26T00:59:39.945Z,101872.59
2023-01-26T01:04:42.000Z,101878.78
2023-01-26T01:09:45.891Z,101881.34
2023-01-26T01:14:48.359Z,101872.50
2023-01-26T01:19:50.499Z,101869.81
2023-01-26T01:24:56.780Z,101859.31
2023-01-26T01:29:58.889Z,101861.13
2023-01-26T01:35:01.044Z,101844.53
2023-01-26T01:40:03.191Z,101864.72
2023-01-26T01:45:27.118Z,101849.78
2023-01-26T01:50:34.914Z,101856.84
2023-01-26T01:55:38.194Z,101856.78
2023-01-26T02:00:40.345Z,101837.53
2023-01-26T02:06:01.794Z,101831.34
2023-01-26T02:11:12.808Z,101836.69
2023-01-26T02:16:15.658Z,101826.09
2023-01-26T02:21:20.155Z,101826.09
2023-01-26T02:26:25.266Z,101825.16
2023-01-26T02:31:28.298Z,101818.19
2023-01-26T02:36:32.189Z,101810.38
2023-01-26T02:41:52.458Z,101803.34
2023-01-26T02:46:55.472Z,101805.22
2023-01-26T02:51:57.684Z,101792.81
2023-01-26T02:57:00.112Z,101786.63
2023-01-26T03:02:02.771Z,101771.69
2023-01-26T03:07:04.973Z,101785.72
2023-01-26T03:12:07.172Z,101768.25
2023-01-26T03:17:09.249Z,101767.38
2023-01-26T03:22:30.857Z,101770.03
2023-01-26T03:27:43.717Z,101760.34
2023-01-26T03:32:47.759Z,101755.88
2023-01-26T03:37:55.199Z,101744.47
2023-01-26T03:43:48.153Z,101744.41
2023-01-26T03:49:09.830Z,101739.28
2023-01-26T03:54:30.560Z,101725.25
2023-01-26T03:59:38.608Z,101715.66
2023-01-26T04:05:03.211Z,101721.78
2023-01-26T04:10:09.072Z,101721.69
2023-01-26T04:15:30.286Z,101699.91
2023-01-26T04:20:51.092Z,101695.34
2023-01-26T04:25:53.299Z,101697.97
2023-01-26T04:30:55.707Z,101692.81
2023-01-26T04:36:04.155Z,101685.72
2023-01-26T04:41:06.978Z,101677.78
2023-01-26T04:46:16.331Z,101670.66
2023-01-26T04:51:21.250Z,101668.03
2023-01-26T04:56:35.066Z,101668.09
2023-01-26T05:01:44.563Z,101663.69
2023-01-26T05:06:52.215Z,101660.25
2023-01-26T05:12:15.128Z,101657.63
2023-01-26T05:17:37.432Z,101657.63
2023-01-26T05:23:05.597Z,101651.44
2023-01-26T05:28:07.688Z,101655.84
2023-01-26T05:33:11.066Z,101663.84
2023-01-26T05:38:14.304Z,101646.22
2023-01-26T05:43:16.619Z,101645.41
2023-01-26T05:48:37.316Z,101636.53
2023-01-26T05:53:39.623Z,101638.31
2023-01-26T05:58:41.947Z,101637.34
2023-01-26T06:03:44.364Z,101632.00
2023-01-26T06:08:46.518Z,101627.66
2023-01-26T06:14:07.119Z,101626.88
2023-01-26T06:19:10.924Z,101638.19
2023-01-26T06:24:14.136Z,101651.31
2023-01-26T06:29:16.723Z,101635.63
2023-01-26T06:34:19.165Z,101637.50
2023-01-26T06:39:21.606Z,101627.78
2023-01-26T06:44:23.885Z,101634.72
2023-01-26T06:49:26.158Z,101634.72
2023-01-26T06:54:28.424Z,101632.06
2023-01-26T06:59:57.752Z,101638.19
2023-01-26T07:05:14.499Z,101628.56
2023-01-26T07:10:16.605Z,101627.72
2023-01-26T07:15:18.717Z,101626.81
2023-01-26T07:20:20.769Z,101630.28
2023-01-26T07:25:22.859Z,101637.34
2023-01-26T07:30:25.337Z,101646.97
2023-01-26T07:35:27.612Z,101642.53
2023-01-26T07:40:29.857Z,101654.13
2023-01-26T07:45:32.519Z,101659.28
2023-01-26T07:50:34.765Z,101660.25
2023-01-26T07:55:36.918Z,101658.56
2023-01-26T08:00:40.256Z,101662.03
2023-01-26T08:05:43.495Z,101670.72
2023-01-26T08:10:45.792Z,101670.78
2023-01-26T08:15:47.930Z,101677.00
2023-01-26T08:20:52.259Z,101677.06
2023-01-26T08:25:54.646Z,101688.47
2023-01-26T08:30:57.551Z,101691.94
2023-01-26T08:36:08.172Z,101701.66
2023-01-26T08:41:11.470Z,101712.25
2023-01-26T08:46:13.701Z,101712.19
2023-01-26T08:51:15.904Z,101727.97
2023-01-26T08:56:18.063Z,101715.75
2023-01-26T09:01:20.216Z,101729.84
2023-01-26T09:06:22.526Z,101733.31
2023-01-26T09:11:24.865Z,101741.22
2023-01-26T09:16:26.937Z,101740.31
2023-01-26T09:21:29.118Z,101740.31
2023-01-26T09:26:31.664Z,101748.25
2023-01-26T09:31:33.926Z,101764.94
2023-01-26T09:36:36.034Z,101751.16
2023-01-26T09:41:56.571Z,101764.28
2023-01-26T09:47:29.666Z,101763.47
2023-01-26T09:52:39.755Z,101770.47
2023-01-26T09:57:50.413Z,101765.13
2023-01-26T10:03:10.452Z,101773.91
2023-01-26T10:08:14.915Z,101777.50
2023-01-26T10:13:18.593Z,101778.31
2023-01-26T10:18:27.806Z,101779.22
2023-01-26T10:23:34.946Z,101786.25
2023-01-26T10:28:37.165Z,101780.22
2023-01-26T10:33:45.742Z,101759.94
2023-01-26T10:38:49.662Z,101762.72
2023-01-26T10:43:56.584Z,101760.13
2023-01-26T10:49:02.278Z,101771.47
2023-01-26T10:54:21.519Z,101763.56
2023-01-26T10:59:37.567Z,101744.53
2023-01-26T11:04:40.039Z,101746.81
2023-01-26T11:09:42.596Z,101743.25
2023-01-26T11:15:01.771Z,101728.47
2023-01-26T11:20:34.713Z,101720.56
2023-01-26T11:25:56.785Z,101712.69
2023-01-26T11:31:24.089Z,101687.19
2023-01-26T11:36:47.298Z,101699.34
2023-01-26T11:42:25.883Z,101687.97
2023-01-26T11:48:05.256Z,101673.88
2023-01-26T11:53:26.382Z,101683.72
2023-01-26T11:58:39.760Z,101674.03
2023-01-26T12:03:49.282Z,101655.50
2023-01-26T12:09:18.838Z,101630.88
2023-01-26T12:14:56.345Z,101630.88
2023-01-26T12:20:52.305Z,101622.00
2023-01-26T12:26:01.270Z,101608.84
2023-01-26T12:31:25.552Z,101604.41
2023-01-26T12:36:31.127Z,101598.38
2023-01-26T12:41:46.571Z,101596.53
2023-01-26T12:46:59.014Z,101584.22
2023-01-26T12:52:11.690Z,101574.53
2023-01-26T12:57:18.805Z,101558.72
2023-01-26T13:02:30.647Z,101556.91
2023-01-26T13:07:40.337Z,101550.03
2023-01-26T13:13:21.065Z,101539.63
2023-01-26T13:18:49.176Z,101512.25
2023-01-26T13:23:52.839Z,101525.41
2023-01-26T13:29:33.122Z,101521.06
2023-01-26T13:34:44.061Z,101508.69
2023-01-26T13:39:54.640Z,101519.22
2023-01-26T13:45:06.003Z,101506.06
2023-01-26T13:50:34.242Z,101505.09
2023-01-26T13:55:40.835Z,101493.72
2023-01-26T14:00:42.911Z,101497.13
2023-01-26T14:05:52.974Z,101494.56
2023-01-26T14:10:55.940Z,101483.97
2023-01-26T14:16:01.151Z,101484.03
2023-01-26T14:21:05.762Z,101482.19
2023-01-26T14:26:24.726Z,101478.69
2023-01-26T14:31:28.599Z,101488.38
2023-01-26T14:36:39.294Z,101484.81
2023-01-26T14:41:41.827Z,101488.44
2023-01-26T14:46:49.867Z,101488.44
2023-01-26T14:51:58.343Z,101495.53
2023-01-26T14:57:02.119Z,101492.78
2023-01-26T15:02:37.079Z,101499.78
2023-01-26T15:08:03.017Z,101502.47
2023-01-26T15:13:22.049Z,101491.19
2023-01-26T15:18:31.351Z,101493.66
2023-01-26T15:23:36.805Z,101499.78
2023-01-26T15:28:39.255Z,101502.38
2023-01-26T15:33:51.837Z,101498.00
2023-01-26T15:39:14.608Z,101498.00
2023-01-26T15:44:19.344Z,101501.47
2023-01-26T15:49:23.151Z,101512.91
2023-01-26T15:54:25.254Z,101511.16
2023-01-26T15:59:27.253Z,101513.88
2023-01-26T16:04:29.294Z,101507.75
2023-01-26T16:09:31.288Z,101512.94
2023-01-26T16:14:33.284Z,101507.63
2023-01-26T16:19:35.892Z,101520.81
2023-01-26T16:24:39.040Z,101512.91
2023-01-26T16:29:41.122Z,101519.91
2023-01-26T16:34:43.188Z,101507.75
2023-01-26T16:39:45.371Z,101512.03
2023-01-26T16:44:47.986Z,101514.63
2023-01-26T16:49:49.966Z,101516.41
2023-01-26T16:54:54.160Z,101494.66
2023-01-26T16:59:56.289Z,101511.16
2023-01-26T17:04:58.293Z,101513.78
2023-01-26T17:10:00.419Z,101514.66
2023-01-26T17:15:04.361Z,101522.63
2023-01-26T17:20:18.314Z,101518.22
2023-01-26T17:25:21.152Z,101519.03
2023-01-26T17:30:23.331Z,101525.16
2023-01-26T17:35:25.446Z,101526.09
2023-01-26T17:40:27.505Z,101512.09
2023-01-26T17:45:29.539Z,101523.53
2023-01-26T17:50:31.611Z,101526.97
2023-01-26T17:55:36.058Z,101527.78
2023-01-26T18:00:38.808Z,101521.69
2023-01-26T18:05:40.927Z,101536.63
2023-01-26T18:10:42.996Z,101533.09
2023-01-26T18:15:45.692Z,101518.19
2023-01-26T18:20:47.820Z,101520.81
2023-01-26T18:25:50.794Z,101512.94
2023-01-26T18:30:53.120Z,101517.28
2023-01-26T18:36:04.452Z,101528.72
2023-01-26T18:41:15.330Z,101528.66
2023-01-26T18:46:17.455Z,101526.00
2023-01-26T18:51:20.379Z,101526.06
2023-01-26T18:56:22.793Z,101542.78
2023-01-26T19:01:26.177Z,101533.97
2023-01-26T19:06:29.216Z,101537.47
2023-01-26T19:11:33.863Z,101541.00
2023-01-26T19:16:36.585Z,101534.84
2023-01-26T19:21:38.612Z,101534.84
2023-01-26T19:26:40.680Z,101533.09
2023-01-26T19:31:42.939Z,101530.47
2023-01-26T19:36:47.020Z,101529.56
2023-01-26T19:41:50.288Z,101534.84
2023-01-26T19:46:53.803Z,101531.19
2023-01-26T19:51:56.770Z,101536.44
2023-01-26T19:56:58.812Z,101533.91
2023-01-26T20:02:00.889Z,101528.72
2023-01-26T20:07:05.428Z,101539.34
2023-01-26T20:12:09.274Z,101526.09
2023-01-26T20:17:11.282Z,101528.72
2023-01-26T20:22:13.608Z,101531.28
2023-01-26T20:27:16.302Z,101522.56
2023-01-26T20:32:18.352Z,101528.75
2023-01-26T20:37:21.552Z,101527.13
2023-01-26T20:42:23.628Z,101524.50
2023-01-26T20:47:26.462Z,101526.19
2023-01-26T20:52:28.516Z,101519.06
2023-01-26T20:57:32.388Z,101519.13
2023-01-26T21:02:34.400Z,101524.34
2023-01-26T21:07:36.473Z,101530.59
2023-01-26T21:12:38.632Z,101535.03
2023-01-26T21:17:40.707Z,101525.41
2023-01-26T21:22:43.333Z,101530.59
2023-01-26T21:27:45.324Z,101522.63
2023-01-26T21:32:47.419Z,101525.19
2023-01-26T21:37:49.475Z,101526.94
2023-01-26T21:42:51.624Z,101520.81
2023-01-26T21:48:13.680Z,101518.22
2023-01-26T21:53:15.879Z,101508.53
2023-01-26T21:58:36.499Z,101525.25
2023-01-26T22:03:38.636Z,101514.72
2023-01-26T22:08:40.767Z,101513.78
2023-01-26T22:13:46.691Z,101518.97
2023-01-26T22:18:49.618Z,101517.25
2023-01-26T22:23:52.971Z,101502.38
2023-01-26T22:28:57.345Z,101503.22
2023-01-26T22:34:00.960Z,101494.50
2023-01-26T22:39:03.742Z,101498.84
2023-01-26T22:44:06.173Z,101496.19
2023-01-26T22:49:08.251Z,101490.91
2023-01-26T22:54:10.559Z,101497.97
2023-01-26T22:59:12.584Z,101483.94
2023-01-26T23:04:14.708Z,101485.69
2023-01-26T23:09:16.808Z,101477.78
2023-01-26T23:14:22.257Z,101483.03
2023-01-26T23:19:24.693Z,101482.19
2023-01-26T23:24:26.788Z,101473.34
2023-01-26T23:29:28.922Z,101477.78
2023-01-26T23:34:30.976Z,101472.50
2023-01-26T23:39:33.040Z,101466.38
2023-01-26T23:44:35.167Z,101462.91
2023-01-26T23:49:37.245Z,101461.19
2023-01-26T23:54:39.231Z,101458.50
2023-01-26T23:59:41.231Z,101460.22
